createdAt,value
2019-05-13T00:00:26.896Z,63.27
2019-05-13T00:05:25.933Z,63.60
2019-05-13T00:10:24.335Z,63.70
2019-05-13T00:15:21.610Z,63.32
2019-05-13T00:20:18.715Z,63.52
2019-05-13T00:25:15.659Z,63.79
2019-05-13T00:30:14.502Z,63.65
2019-05-13T00:35:13.938Z,63.76
2019-05-13T00:40:10.685Z,63.62
2019-05-13T00:45:07.929Z,63.68
2019-05-13T00:50:05.342Z,63.92
2019-05-13T00:55:04.245Z,63.80
2019-05-13T01:00:03.553Z,63.77
2019-05-13T01:05:00.707Z,63.67
2019-05-13T01:09:57.898Z,63.97
2019-05-13T01:14:54.877Z,63.71
2019-05-13T01:19:53.765Z,64.21
2019-05-13T01:24:50.979Z,64.29
2019-05-13T01:29:47.979Z,64.08
2019-05-13T01:34:47.134Z,64.34
2019-05-13T01:39:44.245Z,64.36
2019-05-13T01:44:43.642Z,64.17
2019-05-13T01:49:40.220Z,63.58
2019-05-13T01:54:39.412Z,63.70
2019-05-13T01:59:36.737Z,63.87
2019-05-13T02:04:35.500Z,63.95
2019-05-13T02:09:33.654Z,63.48
2019-05-13T02:14:34.085Z,64.03
2019-05-13T02:19:33.453Z,63.97
2019-05-13T02:24:30.100Z,64.63
2019-05-13T02:29:27.094Z,64.87
2019-05-13T02:34:24.404Z,64.44
2019-05-13T02:39:23.236Z,64.61
2019-05-13T02:44:22.525Z,64.11
2019-05-13T02:49:19.210Z,63.76
2019-05-13T02:54:18.065Z,64.27
2019-05-13T02:59:15.287Z,64.14
2019-05-13T03:04:13.114Z,64.36
2019-05-13T03:09:12.757Z,64.05
2019-05-13T03:14:12.855Z,63.24
2019-05-13T03:19:09.174Z,64.57
2019-05-13T03:24:09.008Z,63.83
2019-05-13T03:29:06.122Z,63.49
2019-05-13T03:34:06.755Z,64.23
2019-05-13T03:39:09.727Z,63.95
2019-05-13T03:44:06.706Z,63.43
2019-05-13T03:49:04.968Z,64.03
2019-05-13T03:54:04.089Z,63.47
2019-05-13T03:59:02.690Z,63.51
2019-05-13T04:04:03.068Z,63.42
2019-05-13T04:09:19.548Z,63.17
2019-05-13T04:13:58.098Z,63.08
2019-05-13T04:18:56.840Z,62.60
2019-05-13T04:23:53.920Z,63.15
2019-05-13T04:28:52.921Z,63.12
2019-05-13T04:33:53.094Z,63.67
2019-05-13T04:38:52.803Z,63.57
2019-05-13T04:43:49.460Z,63.29
2019-05-13T04:48:46.551Z,63.11
2019-05-13T04:53:53.303Z,62.89
2019-05-13T04:58:48.787Z,62.77
2019-05-13T05:03:57.296Z,63.11
2019-05-13T05:09:08.463Z,63.16
2019-05-13T05:14:18.732Z,62.91
2019-05-13T05:19:52.530Z,62.40
2019-05-13T05:25:35.570Z,62.60
2019-05-13T05:31:05.197Z,61.83
2019-05-13T05:36:41.520Z,62.57
2019-05-13T05:41:42.190Z,62.03
2019-05-13T05:46:42.498Z,62.21
2019-05-13T05:51:41.781Z,62.54
2019-05-13T05:56:41.487Z,61.74
2019-05-13T06:01:41.882Z,61.48
2019-05-13T06:06:48.058Z,61.24
2019-05-13T06:11:45.143Z,61.23
2019-05-13T06:16:44.311Z,61.26
2019-05-13T06:21:44.941Z,61.62
2019-05-13T06:26:42.950Z,61.67
2019-05-13T06:31:43.921Z,60.84
2019-05-13T06:36:42.643Z,60.82
2019-05-13T06:41:41.655Z,61.17
2019-05-13T06:46:38.990Z,60.79
2019-05-13T06:51:37.410Z,60.98
2019-05-13T06:56:38.248Z,59.96
2019-05-13T07:01:35.820Z,60.92
2019-05-13T07:06:32.933Z,60.20
2019-05-13T07:11:37.163Z,60.53
2019-05-13T07:16:34.380Z,60.44
2019-05-13T07:21:33.485Z,60.30
2019-05-13T07:26:34.863Z,60.21
2019-05-13T07:31:38.173Z,59.83
2019-05-13T07:36:39.247Z,59.59
2019-05-13T07:41:39.499Z,60.55
2019-05-13T07:46:36.408Z,60.25
2019-05-13T07:51:36.270Z,59.61
2019-05-13T07:56:35.222Z,59.61
2019-05-13T08:01:34.266Z,60.14
2019-05-13T08:06:32.336Z,59.37
2019-05-13T08:11:34.948Z,60.67
2019-05-13T08:16:32.115Z,59.74
2019-05-13T08:21:29.182Z,60.66
2019-05-13T08:26:26.128Z,60.76
2019-05-13T08:31:25.434Z,61.19
2019-05-13T08:36:25.717Z,60.40
2019-05-13T08:41:24.755Z,61.43
2019-05-13T08:46:24.884Z,60.21
2019-05-13T08:51:25.946Z,60.57
2019-05-13T08:56:24.823Z,60.30
2019-05-13T09:01:28.077Z,60.40
2019-05-13T09:06:24.910Z,59.74
2019-05-13T09:11:22.274Z,60.17
2019-05-13T09:16:21.432Z,60.77
2019-05-13T09:21:18.233Z,60.87
2019-05-13T09:26:16.924Z,59.96
2019-05-13T09:31:13.980Z,60.51
2019-05-13T09:36:15.874Z,60.15
2019-05-13T09:41:16.106Z,59.49
2019-05-13T09:46:13.084Z,60.11
2019-05-13T09:51:13.240Z,59.43
2019-05-13T09:56:11.913Z,59.83
2019-05-13T10:01:11.465Z,60.62
2019-05-13T10:06:09.547Z,60.31
2019-05-13T10:11:06.692Z,60.45
2019-05-13T10:16:05.523Z,60.76
2019-05-13T10:21:03.382Z,60.60
2019-05-13T10:26:07.806Z,59.96
2019-05-13T10:31:05.215Z,59.88
2019-05-13T10:36:03.880Z,60.24
2019-05-13T10:41:03.251Z,60.26
2019-05-13T10:46:02.625Z,59.96
2019-05-13T10:51:01.972Z,60.13
2019-05-13T10:55:59.155Z,60.05
2019-05-13T11:00:56.309Z,60.20
2019-05-13T11:05:53.571Z,60.01
2019-05-13T11:10:53.020Z,59.78
2019-05-13T11:15:57.554Z,59.47
2019-05-13T11:20:50.442Z,59.26
2019-05-13T11:25:52.269Z,58.91
2019-05-13T11:30:52.067Z,58.78
2019-05-13T11:35:52.100Z,58.36
2019-05-13T11:40:52.305Z,58.76
2019-05-13T11:45:48.320Z,59.00
2019-05-13T11:50:50.150Z,59.15
2019-05-13T11:55:46.061Z,58.72
2019-05-13T12:00:57.641Z,58.86
2019-05-13T12:05:56.922Z,59.62
2019-05-13T12:10:55.418Z,59.35
2019-05-13T12:15:57.376Z,59.92
2019-05-13T12:21:03.155Z,59.83
2019-05-13T12:25:59.182Z,60.46
2019-05-13T12:30:58.047Z,59.79
2019-05-13T12:35:55.258Z,60.26
2019-05-13T12:40:54.251Z,60.83
2019-05-13T12:45:53.594Z,61.02
2019-05-13T12:50:54.112Z,59.70
2019-05-13T12:55:56.702Z,60.12
2019-05-13T13:00:55.195Z,60.41
2019-05-13T13:06:24.636Z,60.98
2019-05-13T13:11:00.893Z,61.37
2019-05-13T13:15:58.487Z,60.55
2019-05-13T13:21:01.193Z,59.84
2019-05-13T13:25:57.177Z,60.26
2019-05-13T13:31:04.270Z,60.52
2019-05-13T13:36:06.114Z,61.32
2019-05-13T13:41:05.703Z,61.32
2019-05-13T13:46:08.564Z,61.97
2019-05-13T13:51:05.862Z,61.22
2019-05-13T13:56:04.869Z,61.64
2019-05-13T14:01:11.750Z,61.74
2019-05-13T14:06:06.187Z,61.45
2019-05-13T14:11:02.065Z,61.66
2019-05-13T14:16:01.900Z,61.30
2019-05-13T14:20:58.161Z,61.40
2019-05-13T14:25:55.195Z,62.30
2019-05-13T14:30:52.347Z,62.48
2019-05-13T14:35:49.383Z,62.24
2019-05-13T14:40:46.888Z,61.64
2019-05-13T14:45:44.173Z,61.73
2019-05-13T14:50:41.763Z,61.39
2019-05-13T14:55:41.777Z,62.23
2019-05-13T15:00:38.593Z,62.13
2019-05-13T15:05:35.916Z,62.35
2019-05-13T15:10:38.246Z,61.70
2019-05-13T15:15:36.018Z,61.40
2019-05-13T15:20:33.375Z,61.05
2019-05-13T15:25:31.427Z,62.09
2019-05-13T15:30:28.699Z,62.00
2019-05-13T15:35:25.862Z,62.44
2019-05-13T15:40:22.844Z,62.32
2019-05-13T15:45:21.317Z,62.44
2019-05-13T15:50:18.529Z,62.00
2019-05-13T15:55:15.531Z,61.89
2019-05-13T16:00:13.200Z,61.91
2019-05-13T16:05:12.003Z,62.06
2019-05-13T16:10:11.291Z,62.61
2019-05-13T16:15:13.137Z,62.66
2019-05-13T16:20:11.153Z,62.81
2019-05-13T16:25:08.362Z,62.95
2019-05-13T16:30:07.264Z,62.75
2019-05-13T16:35:06.456Z,62.82
2019-05-13T16:40:05.551Z,62.59
2019-05-13T16:45:06.418Z,62.70
2019-05-13T16:50:06.943Z,62.91
2019-05-13T16:55:06.590Z,61.81
2019-05-13T17:00:06.529Z,61.79
2019-05-13T17:05:05.386Z,62.19
2019-05-13T17:10:05.080Z,62.37
2019-05-13T17:15:03.754Z,61.53
2019-05-13T17:20:02.384Z,62.35
2019-05-13T17:25:02.505Z,61.79
2019-05-13T17:30:01.927Z,62.10
2019-05-13T17:34:58.422Z,62.50
2019-05-13T17:39:55.537Z,62.03
2019-05-13T17:44:52.499Z,62.65
2019-05-13T17:49:51.984Z,61.94
2019-05-13T17:54:48.616Z,61.51
2019-05-13T17:59:45.744Z,61.66
2019-05-13T18:04:44.557Z,61.90
2019-05-13T18:09:42.457Z,61.26
2019-05-13T18:14:42.165Z,61.80
2019-05-13T18:19:41.985Z,62.35
2019-05-13T18:24:38.933Z,61.80
2019-05-13T18:29:36.403Z,61.32
2019-05-13T18:34:33.591Z,60.28
2019-05-13T18:39:32.263Z,60.64
2019-05-13T18:44:31.493Z,61.40
2019-05-13T18:49:28.712Z,60.13
2019-05-13T18:54:25.754Z,62.11
2019-05-13T18:59:23.258Z,61.38
2019-05-13T19:04:21.773Z,60.85
2019-05-13T19:09:18.929Z,61.33
2019-05-13T19:14:16.475Z,61.72
2019-05-13T19:19:16.978Z,61.41
2019-05-13T19:24:13.586Z,60.99
2019-05-13T19:29:11.501Z,60.98
2019-05-13T19:34:08.771Z,60.60
2019-05-13T19:39:06.581Z,60.39
2019-05-13T19:44:03.561Z,60.71
2019-05-13T19:49:01.727Z,60.67
2019-05-13T19:54:01.084Z,60.47
2019-05-13T19:58:57.961Z,60.32
2019-05-13T20:03:54.993Z,60.95
2019-05-13T20:08:52.059Z,60.19
2019-05-13T20:13:49.009Z,60.22
2019-05-13T20:18:47.941Z,60.16
2019-05-13T20:23:44.984Z,60.39
2019-05-13T20:28:42.349Z,60.10
2019-05-13T20:33:42.290Z,60.54
2019-05-13T20:38:40.598Z,60.13
2019-05-13T20:43:39.368Z,60.25
2019-05-13T20:48:36.364Z,59.58
2019-05-13T20:53:33.315Z,59.19
2019-05-13T20:58:31.900Z,60.42
2019-05-13T21:03:31.599Z,59.50
2019-05-13T21:08:29.067Z,60.49
2019-05-13T21:13:26.189Z,60.08
2019-05-13T21:18:23.296Z,60.07
2019-05-13T21:23:21.745Z,60.14
2019-05-13T21:28:19.028Z,61.25
2019-05-13T21:33:16.067Z,60.78
2019-05-13T21:38:13.111Z,60.80
2019-05-13T21:43:10.178Z,59.86
2019-05-13T21:48:07.259Z,60.45
2019-05-13T21:53:05.300Z,61.43
2019-05-13T21:58:03.319Z,61.57
2019-05-13T22:03:02.085Z,61.36
2019-05-13T22:08:01.551Z,61.29
2019-05-13T22:12:58.307Z,61.78
2019-05-13T22:17:55.376Z,61.02
2019-05-13T22:22:52.370Z,61.07
2019-05-13T22:27:51.724Z,61.54
2019-05-13T22:32:48.429Z,61.60
2019-05-13T22:37:45.971Z,62.14
2019-05-13T22:42:42.947Z,63.05
2019-05-13T22:47:41.779Z,61.78
2019-05-13T22:52:38.871Z,61.97
2019-05-13T22:57:35.894Z,62.26
2019-05-13T23:02:33.478Z,63.53
2019-05-13T23:07:31.562Z,63.36
2019-05-13T23:12:28.629Z,63.22
2019-05-13T23:17:25.675Z,63.07
2019-05-13T23:22:22.647Z,63.12
2019-05-13T23:27:22.041Z,63.17
2019-05-13T23:32:21.314Z,62.78
2019-05-13T23:37:18.808Z,62.20
2019-05-13T23:42:15.804Z,62.44
2019-05-13T23:47:12.824Z,62.35
2019-05-13T23:52:11.701Z,62.77
2019-05-13T23:57:11.494Z,62.61
